createdAt,value
2019-01-30T00:01:05.048Z,-2.69
2019-01-30T00:03:36.940Z,-2.74
2019-01-30T00:06:10.093Z,-2.70
2019-01-30T00:08:41.863Z,-2.76
2019-01-30T00:11:13.625Z,-2.79
2019-01-30T00:13:46.346Z,-2.75
2019-01-30T00:16:18.100Z,-2.79
2019-01-30T00:18:49.936Z,-2.84
2019-01-30T00:21:21.914Z,-2.83
2019-01-30T00:23:53.837Z,-2.80
2019-01-30T00:26:25.756Z,-2.86
2019-01-30T00:28:57.586Z,-2.93
2019-01-30T00:31:29.501Z,-2.85
2019-01-30T00:34:01.328Z,-2.85
2019-01-30T00:36:33.102Z,-2.87
2019-01-30T00:39:07.226Z,-2.90
2019-01-30T00:41:40.097Z,-2.86
2019-01-30T00:44:11.925Z,-2.91
2019-01-30T00:46:43.758Z,-2.87
2019-01-30T00:49:15.505Z,-2.91
2019-01-30T00:51:47.267Z,-2.90
2019-01-30T00:54:19.027Z,-2.93
2019-01-30T00:56:50.960Z,-2.98
2019-01-30T00:59:22.705Z,-2.95
2019-01-30T01:01:54.607Z,-2.97
2019-01-30T01:04:26.503Z,-2.94
2019-01-30T01:06:58.416Z,-2.98
2019-01-30T01:09:30.367Z,-2.99
2019-01-30T01:12:02.127Z,-2.98
2019-01-30T01:14:33.883Z,-3.01
2019-01-30T01:17:05.787Z,-3.02
2019-01-30T01:19:37.621Z,-3.00
2019-01-30T01:22:09.533Z,-3.00
2019-01-30T01:24:41.294Z,-3.02
2019-01-30T01:27:13.191Z,-3.04
2019-01-30T01:29:45.093Z,-3.01
2019-01-30T01:32:17.174Z,-3.01
2019-01-30T01:34:48.944Z,-3.05
2019-01-30T01:37:20.757Z,-3.09
2019-01-30T01:39:52.598Z,-2.98
2019-01-30T01:42:24.419Z,-2.99
2019-01-30T01:44:56.171Z,-2.98
2019-01-30T01:47:28.054Z,-2.95
2019-01-30T01:49:59.894Z,-2.95
2019-01-30T01:52:31.895Z,-3.03
2019-01-30T01:55:03.754Z,-2.98
2019-01-30T01:57:35.648Z,-2.97
2019-01-30T02:00:11.459Z,-2.96
2019-01-30T02:02:43.610Z,-3.02
2019-01-30T02:05:18.600Z,-3.09
2019-01-30T02:07:50.677Z,-2.92
2019-01-30T02:10:23.970Z,-2.92
2019-01-30T02:12:55.903Z,-2.96
2019-01-30T02:15:27.815Z,-3.04
2019-01-30T02:17:59.753Z,-3.04
2019-01-30T02:20:33.375Z,-2.95
2019-01-30T02:23:05.283Z,-3.01
2019-01-30T02:25:37.192Z,-2.87
2019-01-30T02:28:10.192Z,-2.90
2019-01-30T02:30:47.678Z,-2.85
2019-01-30T02:33:15.626Z,-2.90
2019-01-30T02:35:47.698Z,-2.94
2019-01-30T02:38:19.486Z,-2.84
2019-01-30T02:40:51.343Z,-2.92
2019-01-30T02:43:23.097Z,-3.00
2019-01-30T02:45:54.853Z,-3.01
2019-01-30T02:48:26.679Z,-3.00
2019-01-30T02:50:58.496Z,-3.04
2019-01-30T02:53:30.408Z,-3.04
2019-01-30T02:56:02.153Z,-3.04
2019-01-30T02:58:33.897Z,-3.07
2019-01-30T03:01:05.728Z,-3.05
2019-01-30T03:03:37.643Z,-3.01
2019-01-30T03:06:09.654Z,-3.10
2019-01-30T03:08:41.580Z,-3.08
2019-01-30T03:11:13.648Z,-3.22
2019-01-30T03:13:45.552Z,-3.11
2019-01-30T03:16:17.570Z,-3.32
2019-01-30T03:18:49.337Z,-3.10
2019-01-30T03:21:21.231Z,-3.00
2019-01-30T03:23:53.006Z,-2.94
2019-01-30T03:26:24.831Z,-2.99
2019-01-30T03:28:56.600Z,-3.01
2019-01-30T03:31:28.457Z,-3.04
2019-01-30T03:34:00.507Z,-3.14
2019-01-30T03:36:32.658Z,-2.96
2019-01-30T03:39:07.340Z,-3.14
2019-01-30T03:41:40.238Z,-2.96
2019-01-30T03:44:12.083Z,-3.09
2019-01-30T03:46:44.024Z,-2.98
2019-01-30T03:49:15.949Z,-3.00
2019-01-30T03:51:47.837Z,-2.95
2019-01-30T03:54:19.675Z,-2.92
2019-01-30T03:56:51.609Z,-2.94
2019-01-30T03:59:23.531Z,-2.97
2019-01-30T04:01:55.717Z,-3.01
2019-01-30T04:04:27.901Z,-3.10
2019-01-30T04:06:59.825Z,-2.92
2019-01-30T04:09:31.790Z,-2.94
2019-01-30T04:12:03.610Z,-2.98
2019-01-30T04:14:35.531Z,-2.95
2019-01-30T04:17:07.639Z,-3.00
2019-01-30T04:19:39.417Z,-3.09
2019-01-30T04:22:11.341Z,-2.98
2019-01-30T04:24:43.184Z,-2.94
2019-01-30T04:27:15.199Z,-2.92
2019-01-30T04:29:47.049Z,-2.96
2019-01-30T04:32:18.977Z,-3.06
2019-01-30T04:34:50.755Z,-2.95
2019-01-30T04:37:22.683Z,-2.91
2019-01-30T04:39:54.603Z,-2.91
2019-01-30T04:42:26.448Z,-3.02
2019-01-30T04:44:58.298Z,-2.94
2019-01-30T04:47:30.066Z,-2.97
2019-01-30T04:50:02.440Z,-2.88
2019-01-30T04:52:34.295Z,-2.85
2019-01-30T04:55:06.958Z,-2.94
2019-01-30T04:57:38.879Z,-2.86
2019-01-30T05:00:13.414Z,-2.89
2019-01-30T05:02:45.346Z,-2.86
2019-01-30T05:05:19.034Z,-2.90
2019-01-30T05:07:50.992Z,-2.87
2019-01-30T05:10:23.108Z,-2.89
2019-01-30T05:12:55.043Z,-2.84
2019-01-30T05:15:26.944Z,-2.89
2019-01-30T05:17:59.151Z,-2.80
2019-01-30T05:20:31.139Z,-2.87
2019-01-30T05:23:03.310Z,-2.83
2019-01-30T05:25:35.164Z,-2.90
2019-01-30T05:28:07.090Z,-2.89
2019-01-30T05:30:39.095Z,-2.90
2019-01-30T05:33:10.993Z,-2.96
2019-01-30T05:35:42.970Z,-2.97
2019-01-30T05:38:14.820Z,-2.92
2019-01-30T05:40:46.801Z,-2.85
2019-01-30T05:43:18.658Z,-2.88
2019-01-30T05:45:50.593Z,-2.87
2019-01-30T05:48:22.527Z,-2.88
2019-01-30T05:50:54.443Z,-2.87
2019-01-30T05:53:26.381Z,-2.81
2019-01-30T05:55:58.310Z,-2.85
2019-01-30T05:58:30.404Z,-2.82
2019-01-30T06:01:02.397Z,-2.86
2019-01-30T06:03:34.330Z,-2.88
2019-01-30T06:06:06.498Z,-2.85
2019-01-30T06:08:38.702Z,-2.84
2019-01-30T06:11:12.205Z,-2.78
2019-01-30T06:13:44.075Z,-2.87
2019-01-30T06:16:16.249Z,-2.76
2019-01-30T06:18:48.286Z,-2.79
2019-01-30T06:21:20.207Z,-2.84
2019-01-30T06:23:52.282Z,-2.85
2019-01-30T06:26:24.212Z,-2.86
2019-01-30T06:28:56.467Z,-2.72
2019-01-30T06:31:29.427Z,-2.72
2019-01-30T06:34:01.404Z,-2.75
2019-01-30T06:36:33.326Z,-2.68
2019-01-30T06:39:07.652Z,-2.61
2019-01-30T06:41:39.580Z,-2.62
2019-01-30T06:44:11.939Z,-2.72
2019-01-30T06:46:43.873Z,-2.71
2019-01-30T06:49:15.819Z,-2.57
2019-01-30T06:51:47.988Z,-2.61
2019-01-30T06:54:20.061Z,-2.59
2019-01-30T06:56:52.061Z,-2.59
2019-01-30T06:59:23.939Z,-2.62
2019-01-30T07:01:56.004Z,-2.70
2019-01-30T07:04:28.271Z,-2.76
2019-01-30T07:07:00.483Z,-2.76
2019-01-30T07:09:32.493Z,-2.74
2019-01-30T07:12:04.666Z,-2.56
2019-01-30T07:14:36.701Z,-2.54
2019-01-30T07:17:08.858Z,-2.49
2019-01-30T07:19:40.787Z,-2.46
2019-01-30T07:22:13.168Z,-2.53
2019-01-30T07:24:45.696Z,-2.57
2019-01-30T07:27:17.684Z,-2.53
2019-01-30T07:29:49.797Z,-2.54
2019-01-30T07:32:21.987Z,-2.51
2019-01-30T07:34:53.953Z,-2.51
2019-01-30T07:37:25.875Z,-2.52
2019-01-30T07:39:57.808Z,-2.68
2019-01-30T07:42:29.725Z,-2.69
2019-01-30T07:45:01.653Z,-2.66
2019-01-30T07:47:33.637Z,-2.40
2019-01-30T07:50:06.905Z,-2.32
2019-01-30T07:52:38.928Z,-2.47
2019-01-30T07:55:13.762Z,-2.68
2019-01-30T07:57:45.899Z,-2.82
2019-01-30T08:00:24.663Z,-2.55
2019-01-30T08:02:56.657Z,-2.56
2019-01-30T08:05:28.919Z,-2.43
2019-01-30T08:08:00.769Z,-2.32
2019-01-30T08:10:32.694Z,-2.34
2019-01-30T08:13:04.792Z,-2.27
2019-01-30T08:15:36.791Z,-2.28
2019-01-30T08:18:08.785Z,-2.30
2019-01-30T08:20:40.701Z,-2.29
2019-01-30T08:23:12.676Z,-2.35
2019-01-30T08:25:44.471Z,-2.18
2019-01-30T08:28:16.614Z,-2.16
2019-01-30T08:30:48.934Z,-2.21
2019-01-30T08:33:21.642Z,-2.18
2019-01-30T08:35:53.693Z,-2.30
2019-01-30T08:38:25.886Z,-2.19
2019-01-30T08:40:57.814Z,-2.17
2019-01-30T08:43:29.736Z,-2.29
2019-01-30T08:46:01.845Z,-2.26
2019-01-30T08:48:34.019Z,-2.15
2019-01-30T08:51:06.248Z,-2.16
2019-01-30T08:53:40.388Z,-2.07
2019-01-30T08:56:11.822Z,-2.13
2019-01-30T08:58:43.641Z,-2.10
2019-01-30T09:01:16.838Z,-2.08
2019-01-30T09:03:49.007Z,-2.06
2019-01-30T09:06:20.932Z,-2.01
2019-01-30T09:08:52.710Z,-1.92
2019-01-30T09:11:24.708Z,-1.84
2019-01-30T09:13:56.551Z,-1.86
2019-01-30T09:16:28.403Z,-1.76
2019-01-30T09:19:01.292Z,-1.78
2019-01-30T09:21:33.205Z,-1.74
2019-01-30T09:24:05.211Z,-1.71
2019-01-30T09:26:37.139Z,-1.63
2019-01-30T09:29:10.234Z,-1.52
2019-01-30T09:31:42.136Z,-1.54
2019-01-30T09:34:14.004Z,-1.46
2019-01-30T09:36:45.738Z,-1.39
2019-01-30T09:39:17.644Z,-1.29
2019-01-30T09:41:49.504Z,-1.28
2019-01-30T09:44:21.327Z,-1.16
2019-01-30T09:46:53.248Z,-1.10
2019-01-30T09:49:25.166Z,-1.03
2019-01-30T09:51:57.089Z,-0.94
2019-01-30T09:54:29.279Z,-0.79
2019-01-30T09:57:01.185Z,-0.69
2019-01-30T09:59:33.070Z,-0.58
2019-01-30T10:02:05.069Z,-0.45
2019-01-30T10:04:36.900Z,-0.38
2019-01-30T10:07:10.002Z,-0.26
2019-01-30T10:09:41.941Z,-0.21
2019-01-30T10:12:13.786Z,-0.19
2019-01-30T10:14:45.633Z,-0.13
2019-01-30T10:17:17.486Z,-0.09
2019-01-30T10:19:49.450Z,-0.04
2019-01-30T10:22:21.367Z,0.02
2019-01-30T10:24:53.202Z,0.12
2019-01-30T10:27:25.039Z,0.14
2019-01-30T10:29:58.757Z,0.23
2019-01-30T10:32:30.385Z,0.25
2019-01-30T10:35:02.133Z,0.21
2019-01-30T10:37:33.969Z,0.25
2019-01-30T10:40:08.098Z,0.26
2019-01-30T10:42:39.999Z,0.36
2019-01-30T10:45:12.041Z,0.48
2019-01-30T10:47:44.022Z,0.60
2019-01-30T10:50:19.357Z,0.73
2019-01-30T10:52:51.318Z,0.70
2019-01-30T10:55:25.824Z,0.64
2019-01-30T10:58:00.155Z,0.55
2019-01-30T11:00:36.375Z,0.62
2019-01-30T11:03:08.382Z,0.71
2019-01-30T11:05:40.364Z,0.71
2019-01-30T11:08:12.389Z,0.61
2019-01-30T11:10:44.364Z,0.60
2019-01-30T11:13:16.393Z,0.68
2019-01-30T11:15:48.218Z,0.76
2019-01-30T11:18:20.495Z,0.79
2019-01-30T11:20:52.465Z,0.85
2019-01-30T11:23:24.453Z,0.83
2019-01-30T11:25:57.050Z,0.87
2019-01-30T11:28:29.273Z,0.89
2019-01-30T11:31:01.124Z,0.91
2019-01-30T11:33:33.032Z,0.96
2019-01-30T11:36:04.957Z,1.06
2019-01-30T11:38:36.871Z,1.22
2019-01-30T11:41:10.042Z,1.34
2019-01-30T11:43:41.958Z,1.39
2019-01-30T11:46:13.866Z,1.41
2019-01-30T11:48:56.016Z,1.42
2019-01-30T11:51:19.311Z,1.45
2019-01-30T11:53:51.319Z,1.51
2019-01-30T11:56:23.147Z,1.61
2019-01-30T11:58:55.246Z,1.80
2019-01-30T12:01:27.154Z,1.75
2019-01-30T12:03:58.985Z,1.75
2019-01-30T12:06:30.809Z,1.72
2019-01-30T12:09:02.988Z,1.67
2019-01-30T12:11:34.871Z,1.71
2019-01-30T12:14:06.779Z,1.89
2019-01-30T12:16:38.677Z,1.99
2019-01-30T12:19:10.520Z,2.04
2019-01-30T12:21:42.492Z,2.13
2019-01-30T12:24:14.407Z,2.14
2019-01-30T12:26:46.229Z,2.16
2019-01-30T12:29:18.210Z,2.23
2019-01-30T12:31:50.114Z,2.19
2019-01-30T12:34:28.175Z,2.23
2019-01-30T12:36:55.555Z,2.26
2019-01-30T12:39:27.568Z,2.15
2019-01-30T12:41:59.500Z,2.07
2019-01-30T12:44:33.490Z,1.96
2019-01-30T12:47:05.094Z,1.91
2019-01-30T12:49:36.999Z,1.79
2019-01-30T12:52:08.899Z,1.81
2019-01-30T12:54:40.669Z,1.77
2019-01-30T12:57:12.565Z,1.76
2019-01-30T12:59:44.492Z,1.65
2019-01-30T13:02:16.397Z,1.67
2019-01-30T13:04:48.303Z,1.58
2019-01-30T13:07:20.059Z,1.63
2019-01-30T13:09:51.998Z,1.62
2019-01-30T13:12:23.906Z,1.60
2019-01-30T13:14:55.741Z,1.56
2019-01-30T13:17:27.647Z,1.54
2019-01-30T13:19:59.557Z,1.51
2019-01-30T13:22:31.509Z,1.48
2019-01-30T13:25:03.540Z,1.48
2019-01-30T13:27:35.439Z,1.51
2019-01-30T13:30:15.653Z,1.39
2019-01-30T13:32:48.927Z,1.52
2019-01-30T13:35:20.949Z,1.57
2019-01-30T13:37:52.752Z,1.56
2019-01-30T13:40:31.041Z,1.53
2019-01-30T13:43:03.117Z,1.57
2019-01-30T13:45:35.135Z,1.56
2019-01-30T13:48:19.597Z,1.55
2019-01-30T13:50:51.514Z,1.47
2019-01-30T13:53:23.405Z,1.53
2019-01-30T13:55:55.321Z,1.49
2019-01-30T13:58:27.304Z,1.50
2019-01-30T14:01:00.170Z,1.49
2019-01-30T14:03:32.708Z,1.47
2019-01-30T14:06:04.661Z,1.48
2019-01-30T14:08:36.567Z,1.42
2019-01-30T14:11:08.481Z,1.43
2019-01-30T14:13:40.645Z,1.41
2019-01-30T14:16:12.676Z,1.30
2019-01-30T14:18:44.541Z,1.34
2019-01-30T14:21:16.367Z,1.38
2019-01-30T14:23:48.321Z,1.38
2019-01-30T14:26:20.115Z,1.37
2019-01-30T14:28:52.017Z,1.42
2019-01-30T14:31:23.957Z,1.35
2019-01-30T14:33:55.956Z,1.63
2019-01-30T14:36:28.026Z,1.57
2019-01-30T14:38:59.919Z,1.53
2019-01-30T14:41:31.881Z,1.53
2019-01-30T14:44:04.010Z,1.41
2019-01-30T14:46:35.929Z,1.41
2019-01-30T14:49:07.748Z,1.41
2019-01-30T14:51:39.586Z,1.26
2019-01-30T14:54:11.654Z,1.28
2019-01-30T14:56:43.570Z,1.31
2019-01-30T14:59:15.429Z,1.29
2019-01-30T15:01:47.991Z,1.30
2019-01-30T15:04:19.876Z,1.17
2019-01-30T15:06:51.684Z,1.30
2019-01-30T15:09:23.562Z,1.25
2019-01-30T15:11:55.517Z,1.17
2019-01-30T15:14:27.461Z,1.24
2019-01-30T15:16:59.405Z,1.19
2019-01-30T15:19:33.450Z,1.25
2019-01-30T15:22:05.702Z,1.16
2019-01-30T15:24:37.551Z,1.04
2019-01-30T15:27:09.867Z,1.06
2019-01-30T15:29:41.940Z,1.16
2019-01-30T15:32:14.144Z,1.24
2019-01-30T15:34:46.150Z,1.14
2019-01-30T15:37:18.165Z,1.06
2019-01-30T15:39:50.170Z,0.91
2019-01-30T15:42:22.162Z,0.86
2019-01-30T15:44:54.564Z,0.78
2019-01-30T15:47:26.567Z,0.70
2019-01-30T15:49:58.578Z,0.69
2019-01-30T15:52:30.672Z,0.63
2019-01-30T15:55:02.611Z,0.63
2019-01-30T15:57:34.713Z,0.63
2019-01-30T16:00:16.229Z,0.51
2019-01-30T16:02:52.004Z,0.58
2019-01-30T16:05:25.005Z,0.62
2019-01-30T16:07:57.682Z,0.66
2019-01-30T16:10:29.825Z,0.47
2019-01-30T16:13:01.832Z,0.49
2019-01-30T16:15:50.774Z,0.56
2019-01-30T16:18:22.837Z,0.49
2019-01-30T16:20:55.039Z,0.47
2019-01-30T16:23:27.641Z,0.41
2019-01-30T16:26:00.802Z,0.48
2019-01-30T16:28:32.978Z,0.47
2019-01-30T16:31:05.394Z,0.47
2019-01-30T16:33:39.227Z,0.35
2019-01-30T16:36:11.530Z,0.30
2019-01-30T16:38:43.663Z,0.43
2019-01-30T16:41:17.242Z,0.34
2019-01-30T16:43:52.003Z,0.33
2019-01-30T16:46:24.586Z,0.28
2019-01-30T16:48:58.051Z,0.30
2019-01-30T16:51:30.534Z,0.24
2019-01-30T16:54:02.755Z,0.13
2019-01-30T16:56:35.258Z,0.20
2019-01-30T16:59:08.400Z,0.23
2019-01-30T17:01:43.617Z,0.34
2019-01-30T17:04:17.180Z,0.19
2019-01-30T17:06:49.494Z,0.21
2019-01-30T17:09:22.103Z,0.09
2019-01-30T17:11:54.333Z,0.02
2019-01-30T17:14:27.289Z,-0.01
2019-01-30T17:17:00.166Z,0.11
2019-01-30T17:19:33.920Z,-0.03
2019-01-30T17:22:08.306Z,0.03
2019-01-30T17:24:41.426Z,0.02
2019-01-30T17:27:14.475Z,0.04
2019-01-30T17:29:48.810Z,-0.02
2019-01-30T17:32:21.425Z,-0.05
2019-01-30T17:34:55.026Z,0.08
2019-01-30T17:37:29.234Z,0.02
2019-01-30T17:40:02.956Z,0.08
2019-01-30T17:42:35.027Z,0.04
2019-01-30T17:45:08.216Z,0.05
2019-01-30T17:47:42.190Z,-0.10
2019-01-30T17:50:19.912Z,-0.17
2019-01-30T17:52:53.540Z,-0.08
2019-01-30T17:55:27.109Z,-0.10
2019-01-30T17:58:01.201Z,-0.14
2019-01-30T18:01:03.351Z,-0.10
2019-01-30T18:03:39.571Z,-0.03
2019-01-30T18:06:13.868Z,-0.09
2019-01-30T18:08:48.249Z,-0.09
2019-01-30T18:11:22.824Z,-0.24
2019-01-30T18:13:56.178Z,-0.58
2019-01-30T18:16:32.535Z,-0.24
2019-01-30T18:19:07.395Z,-0.20
2019-01-30T18:21:44.080Z,-0.32
2019-01-30T18:24:19.802Z,-0.46
2019-01-30T18:26:55.052Z,-0.32
2019-01-30T18:29:31.002Z,-0.41
2019-01-30T18:32:07.055Z,-0.42
2019-01-30T18:34:43.289Z,-0.30
2019-01-30T18:37:19.037Z,-0.28
2019-01-30T18:39:55.076Z,-0.35
2019-01-30T18:42:31.239Z,-0.58
2019-01-30T18:45:09.587Z,-0.54
2019-01-30T18:47:45.362Z,-0.29
2019-01-30T18:50:24.444Z,-0.32
2019-01-30T18:53:00.540Z,-0.44
2019-01-30T18:55:36.496Z,-0.52
2019-01-30T18:58:12.424Z,-0.45
2019-01-30T19:00:48.893Z,-0.53
2019-01-30T19:03:24.860Z,-0.46
2019-01-30T19:06:01.698Z,-0.34
2019-01-30T19:08:38.382Z,-0.43
2019-01-30T19:11:16.844Z,-0.44
2019-01-30T19:13:52.970Z,-0.49
2019-01-30T19:16:29.470Z,-0.34
2019-01-30T19:19:05.915Z,-0.43
2019-01-30T19:21:41.526Z,-0.49
2019-01-30T19:24:19.667Z,-0.62
2019-01-30T19:26:53.931Z,-0.55
2019-01-30T19:29:29.494Z,-0.45
2019-01-30T19:32:06.385Z,-0.53
2019-01-30T19:34:42.392Z,-0.55
2019-01-30T19:37:19.035Z,-0.51
2019-01-30T19:39:57.073Z,-0.42
2019-01-30T19:42:33.461Z,-0.50
2019-01-30T19:45:12.467Z,-0.58
2019-01-30T19:47:48.771Z,-0.59
2019-01-30T19:50:33.085Z,-0.68
2019-01-30T19:53:10.382Z,-0.73
2019-01-30T19:55:46.288Z,-0.67
2019-01-30T19:58:23.784Z,-0.67
2019-01-30T20:01:01.249Z,-0.76
2019-01-30T20:03:39.264Z,-0.86
2019-01-30T20:06:17.766Z,-0.77
2019-01-30T20:08:55.260Z,-0.63
2019-01-30T20:11:32.541Z,-0.89
2019-01-30T20:14:11.450Z,-0.66
2019-01-30T20:16:47.859Z,-0.77
2019-01-30T20:19:25.171Z,-0.74
2019-01-30T20:22:03.019Z,-0.67
2019-01-30T20:24:41.034Z,-0.68
2019-01-30T20:27:17.852Z,-0.68
2019-01-30T20:29:54.360Z,-0.89
2019-01-30T20:32:31.828Z,-0.63
2019-01-30T20:35:10.452Z,-0.82
2019-01-30T20:37:48.092Z,-0.85
2019-01-30T20:40:27.286Z,-0.77
2019-01-30T20:43:03.538Z,-0.69
2019-01-30T20:45:40.982Z,-0.75
2019-01-30T20:48:17.487Z,-0.69
2019-01-30T20:50:52.898Z,-0.67
2019-01-30T20:53:28.919Z,-0.81
2019-01-30T20:56:04.762Z,-0.88
2019-01-30T20:58:41.131Z,-0.67
2019-01-30T21:01:17.217Z,-0.73
2019-01-30T21:03:54.145Z,-0.82
2019-01-30T21:06:29.245Z,-0.79
2019-01-30T21:09:06.565Z,-0.83
2019-01-30T21:11:41.675Z,-0.86
2019-01-30T21:14:16.660Z,-0.81
2019-01-30T21:16:52.180Z,-0.83
2019-01-30T21:19:28.203Z,-0.91
2019-01-30T21:22:04.992Z,-0.97
2019-01-30T21:24:39.896Z,-0.82
2019-01-30T21:27:14.832Z,-0.76
2019-01-30T21:29:49.271Z,-0.92
2019-01-30T21:32:23.817Z,-0.81
2019-01-30T21:34:57.989Z,-0.90
2019-01-30T21:37:32.703Z,-0.85
2019-01-30T21:40:09.632Z,-1.05
2019-01-30T21:42:43.859Z,-0.96
2019-01-30T21:45:21.300Z,-0.98
2019-01-30T21:47:54.760Z,-1.06
2019-01-30T21:50:27.878Z,-0.96
2019-01-30T21:53:01.075Z,-0.97
2019-01-30T21:55:34.140Z,-1.18
2019-01-30T21:58:08.051Z,-1.17
2019-01-30T22:00:41.255Z,-1.13
2019-01-30T22:03:14.790Z,-1.18
2019-01-30T22:05:47.499Z,-1.07
2019-01-30T22:08:20.622Z,-1.17
2019-01-30T22:10:53.958Z,-1.22
2019-01-30T22:13:26.619Z,-1.23
2019-01-30T22:16:00.047Z,-1.44
2019-01-30T22:18:32.590Z,-1.45
2019-01-30T22:21:04.780Z,-1.31
2019-01-30T22:23:37.041Z,-1.56
2019-01-30T22:26:09.259Z,-1.56
2019-01-30T22:28:41.404Z,-1.47
2019-01-30T22:31:13.417Z,-1.44
2019-01-30T22:33:45.964Z,-1.66
2019-01-30T22:36:17.960Z,-1.59
2019-01-30T22:38:49.924Z,-1.55
2019-01-30T22:41:22.347Z,-1.62
2019-01-30T22:43:54.660Z,-1.77
2019-01-30T22:46:26.973Z,-1.64
2019-01-30T22:48:59.169Z,-1.81
2019-01-30T22:51:31.219Z,-1.71
2019-01-30T22:54:03.307Z,-1.87
2019-01-30T22:56:35.390Z,-1.79
2019-01-30T22:59:07.470Z,-2.04
2019-01-30T23:01:51.108Z,-2.01
2019-01-30T23:04:57.466Z,-1.87
2019-01-30T23:08:00.849Z,-2.08
2019-01-30T23:11:48.118Z,-2.05
2019-01-30T23:14:31.301Z,-2.19
2019-01-30T23:18:25.967Z,-2.27
2019-01-30T23:21:06.218Z,-2.39
2019-01-30T23:24:20.922Z,-2.52
2019-01-30T23:27:51.725Z,-2.74
2019-01-30T23:31:11.646Z,-2.86
2019-01-30T23:34:48.473Z,-2.95
2019-01-30T23:38:09.943Z,-3.05
2019-01-30T23:41:11.700Z,-3.11
2019-01-30T23:44:34.632Z,-3.16
2019-01-30T23:48:08.666Z,-3.27
2019-01-30T23:51:41.050Z,-3.35
2019-01-30T23:55:12.648Z,-3.43
2019-01-30T23:58:24.628Z,-3.50
